Flight Track Log - Related Links

Times and Time Zones

All times are in EDT time to prevent confusion due to time zone crossing. See the FLG4262 flight status page for this flight to view local times or setup timezone preferences in your user account.

Time Position Orientation Groundspeed Altitude Reporting Facility
EDT Latitude Longitude Course Direction KTS MPH feet Rate Location/Type
Fri 03:58:41 PM 42.2039 -83.3697 83° East 168 193 1,100  Level Cleveland Center
Fri 03:59:29 PM 42.1631 -83.3808 191° South 207 238 2,800 2,110 Climbing Cleveland Center
Fri 04:00:12 PM 42.1331 -83.3739 170° South 213 245 4,300 2,032 Climbing Cleveland Center
Fri 04:00:31 PM 42.1064 -83.3558 153° Southeast 258 297 4,900 2,381 Climbing Cleveland Center
Fri 04:01:00 PM 42.2261 -82.8901 82° East  Level Estimated
Fri 04:01:15 PM 42.0753 -83.2992 126° Southeast 283 326 6,800  Level Cleveland Center
Fri 04:01:31 PM 42.0731 -83.2725 96° East 292 336 7,600 2,419 Climbing Cleveland Center
Fri 04:02:00 PM 42.2302 -82.7356 90° East  Level Estimated
Fri 04:02:17 PM 42.0678 -83.1925 95° East 288 331 9,300  Level Cleveland Center
Fri 04:02:27 PM 42.0661 -83.1703 96° East 294 338 9,700 968 Climbing Cleveland Center
Fri 04:03:00 PM 42.2342 -82.5811 94° East  Level Estimated
Fri 04:03:19 PM 42.0664 -83.0731 90° East 326 375 10,300  Level Cleveland Center
Fri 04:04:00 PM 42.2467 -82.4345 83° East  Level FlightAware Approximate
Fri 04:04:21 PM 42.1189 -82.9519 60° Northeast 387 445 11,700  Level Cleveland Center
Fri 04:05:23 PM 42.1797 -82.8333 55° Northeast 389 448 13,300 1,548 Climbing Cleveland Center
Fri 04:06:25 PM 42.2517 -82.6844 57° Northeast 397 457 14,900 1,452 Climbing Cleveland Center
Fri 04:07:27 PM 42.3147 -82.5614 55° Northeast 400 460 16,300 1,306 Climbing Cleveland Center
Fri 04:08:29 PM 42.3642 -82.4292 63° Northeast 404 465 17,600 1,016 Climbing Cleveland Center
Fri 04:09:31 PM 42.3600 -82.2800 92° East 397 457 18,400 823 Climbing Cleveland Center
Fri 04:10:33 PM 42.3542 -82.1119 93° East 407 468 19,300 768 Climbing Cleveland Center
Fri 04:11:36 PM 42.3469 -81.9539 93° East 415 478 20,000 576 Climbing Cleveland Center
Fri 04:12:38 PM 42.3400 -81.7936 93° East 421 484 20,500 484 Climbing Cleveland Center
Fri 04:13:40 PM 42.3325 -81.6308 94° East 428 493 21,000 484 Climbing Cleveland Center
Fri 04:14:42 PM 42.3244 -81.4658 94° East 433 498 21,500 532 Climbing Cleveland Center
Fri 04:15:44 PM 42.3150 -81.2736 94° East 435 501 22,100 532 Climbing Cleveland Center
Fri 04:16:46 PM 42.3072 -81.1072 94° East 438 504 22,600 726 Climbing Cleveland Center
Fri 04:17:48 PM 42.2975 -80.9414 94° East 438 504 23,600 968 Climbing Cleveland Center
Fri 04:18:50 PM 42.2897 -80.7778 94° East 435 501 24,600 677 Climbing Cleveland Center
Fri 04:19:52 PM 42.2808 -80.6183 94° East 424 488 25,000 194 Climbing Cleveland Center
Fri 04:20:54 PM 42.2719 -80.4525 94° East 437 503 25,000  Level Cleveland Center
Fri 04:21:57 PM 42.2642 -80.2806 93° East 451 519 25,000 -480 Level Cleveland Center
Fri 04:22:59 PM 42.2700 -80.1033 87° East 469 540 24,000 -484 Descending Cleveland Center
Fri 04:24:01 PM 42.2697 -79.9206 90° East 476 548 24,000  Level Cleveland Center
Fri 04:25:03 PM 42.2700 -79.7108 90° East 470 541 24,000  Level Cleveland Center
Fri 04:26:05 PM 42.2692 -79.5378 90° East 466 536 24,000  Level Cleveland Center
Fri 04:27:07 PM 42.2692 -79.3658 90° East 461 531 24,000  Level Cleveland Center
Fri 04:28:09 PM 42.2689 -79.1942 90° East 462 532 24,000  Level Cleveland Center
Fri 04:29:11 PM 42.2672 -79.0225 91° East 461 531 24,000  Level Cleveland Center
Fri 04:30:13 PM 42.2664 -78.8369 90° East 460 529 24,000  Level Cleveland Center
Fri 04:31:16 PM 42.2647 -78.6658 91° East 459 528 24,000  Level Cleveland Center
Fri 04:32:18 PM 42.2631 -78.4600 91° East 459 528 24,000  Level Cleveland Center
Fri 04:33:20 PM 42.2608 -78.2886 91° East 459 528 24,000  Level Cleveland Center
Fri 04:34:22 PM 42.2592 -78.1183 91° East 458 527 24,000  Level Cleveland Center
Fri 04:35:24 PM 42.2561 -77.9486 91° East 458 527 24,000  Level Cleveland Center
Fri 04:36:26 PM 42.2533 -77.7797 91° East 457 526 24,000  Level Cleveland Center
Fri 04:37:28 PM 42.2506 -77.5775 91° East 456 525 24,000 -339 Level Cleveland Center
Fri 04:38:30 PM 42.2464 -77.4086 92° East 456 525 23,300 -823 Descending Cleveland Center
Fri 04:39:32 PM 42.2428 -77.2367 92° East 462 532 22,300 -945 Descending Cleveland Center
Fri 04:40:37 PM 42.2378 -77.0617 92° East 455 524 21,300 -1,200 Descending New York Center
Fri 04:41:37 PM 42.2339 -76.8989 92° East 443 510 19,800 -2,281 Descending New York Center
Fri 04:42:38 PM 42.2300 -76.7275 92° East 435 501 16,700 -3,050 Descending New York Center
Fri 04:43:37 PM 42.2369 -76.5881 86° East 398 458 13,700 -2,777 Descending New York Center
Fri 04:44:39 PM 42.2447 -76.4683 85° East 354 407 11,100 -2,519 Descending New York Center
Fri 04:46:00 PM 42.2000 -76.2861 90° East  Level FlightAware Approximate
Fri 04:46:38 PM 42.2981 -76.2656 90° East 288 331 6,100  Level New York Center
Fri 04:47:36 PM 42.3244 -76.1864 66° East 264 304 3,900 -1,412 Descending New York Center
Fri 04:48:37 PM 42.3267 -76.0942 88° East 244 281 3,300 -300 Descending New York Center
Fri 04:49:36 PM 42.2911 -76.0519 139° Southeast 160 184 3,300 -298 Level New York Center
Fri 04:50:38 PM 42.2589 -76.0242 147° Southeast 148 170 2,700 -545 Descending New York Center
Fri 04:51:37 PM 42.2314 -75.9883 136° Southeast 142 163 2,200 -508 Descending New York Center

Login

Don't have an account? Register now (free) for customized features, flight alerts, and more!